Time;durP1;ratioP1;P1;durP2;ratioP2;P2;SDS_P1;SDS_P2;PMS_P1;PMS_P2;Temp;Humidity;BMP_temperature;BMP_pressure;BME280_temperature;BME280_humidity;BME280_pressure;Samples;Min_cycle;Max_cycle;Signal;HPM_P1;HPM_P2
2021/10/28 00:13:53;;;;;;;9.82;7.60;;;11.80;99.90;;;;;;5051258;28;20205;-79
2021/10/28 00:16:26;;;;;;;10.30;8.35;;;11.80;99.90;;;;;;5056266;28;20300;-78
2021/10/28 00:19:00;;;;;;;15.32;9.13;;;11.80;99.90;;;;;;5033529;28;20219;-79
2021/10/28 00:21:31;;;;;;;10.73;8.40;;;11.80;99.90;;;;;;5050519;28;20172;-80
2021/10/28 00:24:02;;;;;;;13.48;8.82;;;11.80;99.90;;;;;;5049540;28;20197;-79
2021/10/28 00:26:29;;;;;;;13.20;10.18;;;11.80;99.90;;;;;;5051138;28;20596;-79
2021/10/28 00:28:58;;;;;;;10.05;8.90;;;11.80;99.90;;;;;;5033310;28;20177;-79
2021/10/28 00:31:25;;;;;;;11.93;10.25;;;11.80;99.90;;;;;;5053523;28;20250;-79
2021/10/28 00:33:51;;;;;;;11.85;9.60;;;11.80;99.90;;;;;;5054418;28;20193;-79
2021/10/28 00:36:16;;;;;;;12.47;10.40;;;11.70;99.90;;;;;;5054588;28;20248;-79
2021/10/28 00:38:43;;;;;;;15.13;10.30;;;11.70;99.90;;;;;;5054808;28;20162;-80
2021/10/28 00:41:09;;;;;;;13.80;10.73;;;11.70;99.90;;;;;;5054661;28;20196;-79
2021/10/28 00:43:45;;;;;;;14.57;11.75;;;11.70;99.90;;;;;;5053386;28;20594;-80
2021/10/28 00:46:11;;;;;;;11.85;8.73;;;11.70;99.90;;;;;;5076014;22;20278;-76
2021/10/28 00:48:37;;;;;;;11.55;10.15;;;11.70;99.90;;;;;;5086455;28;20179;-77
2021/10/28 00:51:06;;;;;;;13.13;10.50;;;11.70;99.90;;;;;;5053584;28;20725;-77
2021/10/28 00:53:32;;;;;;;16.02;11.95;;;11.70;99.90;;;;;;5082679;28;20974;-77
2021/10/28 00:55:58;;;;;;;18.05;11.27;;;11.70;99.90;;;;;;5067448;28;20240;-77
2021/10/28 00:58:24;;;;;;;13.13;9.50;;;11.70;99.90;;;;;;5073679;28;20204;-77
2021/10/28 01:00:51;;;;;;;14.90;10.90;;;11.70;99.90;;;;;;5073810;28;20186;-77
2021/10/28 01:03:18;;;;;;;15.02;11.48;;;11.70;99.90;;;;;;5055041;28;20173;-78
2021/10/28 01:05:44;;;;;;;14.65;11.30;;;11.70;99.90;;;;;;5054739;28;20307;-77
2021/10/28 01:08:10;;;;;;;12.10;10.67;;;11.70;99.90;;;;;;5073799;28;20255;-77
2021/10/28 01:10:36;;;;;;;15.27;11.73;;;11.70;99.90;;;;;;5073047;28;20184;-77
2021/10/28 01:13:01;;;;;;;13.57;10.63;;;11.70;99.90;;;;;;5073452;28;20172;-74
2021/10/28 01:15:27;;;;;;;13.90;10.87;;;11.70;99.90;;;;;;5073108;28;20561;-77
2021/10/28 01:17:53;;;;;;;16.93;13.40;;;11.70;99.90;;;;;;5072814;28;21344;-78
2021/10/28 01:20:19;;;;;;;12.37;10.57;;;11.70;99.90;;;;;;5073043;28;20590;-76
2021/10/28 01:22:45;;;;;;;13.43;9.83;;;11.70;99.90;;;;;;5073308;28;20669;-76
2021/10/28 01:25:12;;;;;;;20.00;14.00;;;11.70;99.90;;;;;;5071687;28;20184;-76
2021/10/28 01:27:38;;;;;;;17.92;14.50;;;11.70;99.90;;;;;;5073428;28;20191;-76
2021/10/28 01:30:07;;;;;;;15.48;11.15;;;11.70;99.90;;;;;;5073339;28;20172;-77
2021/10/28 01:32:32;;;;;;;16.52;11.20;;;11.70;99.90;;;;;;5072531;28;20188;-76
2021/10/28 01:34:58;;;;;;;17.20;12.70;;;11.70;99.90;;;;;;5055281;28;20203;-76
2021/10/28 01:37:24;;;;;;;14.10;11.50;;;11.70;99.90;;;;;;5073077;28;20267;-76
2021/10/28 01:39:49;;;;;;;14.37;12.63;;;11.60;99.90;;;;;;5072686;28;20935;-76
2021/10/28 01:42:15;;;;;;;15.80;12.83;;;11.70;99.90;;;;;;5054362;28;20200;-76
2021/10/28 01:44:41;;;;;;;14.57;11.00;;;11.60;99.90;;;;;;5072680;28;20264;-76
2021/10/28 01:47:12;;;;;;;17.47;13.93;;;11.60;99.90;;;;;;5072164;28;20215;-76
2021/10/28 01:49:38;;;;;;;14.93;11.10;;;11.60;99.90;;;;;;5073080;28;20574;-76
2021/10/28 01:52:04;;;;;;;16.13;11.07;;;11.60;99.90;;;;;;5073067;28;20700;-77
2021/10/28 01:54:29;;;;;;;15.77;12.05;;;11.60;99.90;;;;;;5071787;28;20207;-77
2021/10/28 01:56:55;;;;;;;11.73;10.13;;;11.60;99.90;;;;;;5071068;28;20184;-77
2021/10/28 01:59:21;;;;;;;11.38;10.13;;;11.60;99.90;;;;;;5073081;28;20175;-76
2021/10/28 02:01:47;;;;;;;16.10;12.30;;;11.70;99.90;;;;;;5072790;28;20243;-76
2021/10/28 02:04:16;;;;;;;17.00;12.57;;;11.60;99.90;;;;;;5055036;28;20582;-77
2021/10/28 02:06:42;;;;;;;17.10;14.00;;;11.60;99.90;;;;;;5070858;28;20599;-77
2021/10/28 02:09:08;;;;;;;13.00;11.60;;;11.60;99.90;;;;;;5072199;28;20255;-77
2021/10/28 02:11:34;;;;;;;13.37;11.27;;;11.60;99.90;;;;;;5072015;28;20225;-77
2021/10/28 02:13:59;;;;;;;14.63;10.60;;;11.60;99.90;;;;;;5072152;28;20192;-76
2021/10/28 02:16:34;;;;;;;17.37;11.80;;;11.60;99.90;;;;;;5072261;28;20603;-75
2021/10/28 02:19:00;;;;;;;14.70;10.07;;;11.60;99.90;;;;;;5053198;28;20179;-75
2021/10/28 02:21:30;;;;;;;13.23;10.30;;;11.60;99.90;;;;;;5072247;28;20179;-75
2021/10/28 02:23:56;;;;;;;13.07;11.48;;;11.60;99.90;;;;;;5071229;28;20176;-75
2021/10/28 02:26:22;;;;;;;14.63;11.35;;;11.60;99.90;;;;;;5071518;28;20199;-75
2021/10/28 02:28:52;;;;;;;14.63;10.90;;;11.60;99.90;;;;;;5070469;28;20183;-75
2021/10/28 02:31:18;;;;;;;15.85;10.60;;;11.60;99.90;;;;;;5071417;28;20231;-75
2021/10/28 02:33:44;;;;;;;19.08;13.68;;;11.60;99.90;;;;;;5071782;28;20216;-75
2021/10/28 02:36:11;;;;;;;14.68;12.27;;;11.60;99.90;;;;;;5070354;28;20555;-75
2021/10/28 02:38:38;;;;;;;18.98;12.55;;;11.60;99.90;;;;;;5071626;28;20176;-75
2021/10/28 02:41:04;;;;;;;15.70;13.00;;;11.60;99.90;;;;;;5071964;28;20259;-75
2021/10/28 02:43:30;;;;;;;18.15;14.00;;;11.60;99.90;;;;;;5071056;28;20168;-75
2021/10/28 02:45:56;;;;;;;16.63;12.67;;;11.60;99.90;;;;;;5071580;28;20207;-75
2021/10/28 02:48:22;;;;;;;17.50;13.70;;;11.60;99.90;;;;;;5071935;28;20636;-75
2021/10/28 02:50:48;;;;;;;20.40;14.95;;;11.60;99.90;;;;;;5071398;28;20636;-75
2021/10/28 02:53:14;;;;;;;18.00;15.27;;;11.60;99.90;;;;;;5071704;28;20165;-75
2021/10/28 02:55:40;;;;;;;14.45;12.15;;;11.60;99.90;;;;;;5070553;28;20648;-75
2021/10/28 02:58:06;;;;;;;16.47;13.83;;;11.60;99.90;;;;;;5071940;28;20169;-75
2021/10/28 03:00:31;;;;;;;17.17;14.03;;;11.60;99.90;;;;;;5053722;28;20575;-75
2021/10/28 03:02:57;;;;;;;14.83;12.67;;;11.60;99.90;;;;;;5070564;28;20172;-76
2021/10/28 03:05:23;;;;;;;17.00;14.07;;;11.60;99.90;;;;;;5070555;28;20309;-76
2021/10/28 03:07:49;;;;;;;17.83;14.70;;;11.60;99.90;;;;;;5072165;28;20209;-76
2021/10/28 03:10:15;;;;;;;16.70;14.53;;;11.50;99.90;;;;;;5054137;28;20571;-75
2021/10/28 03:12:43;;;;;;;22.90;15.75;;;11.50;99.90;;;;;;5070594;28;20251;-76
2021/10/28 03:15:11;;;;;;;16.50;13.95;;;11.50;99.90;;;;;;5070919;28;20678;-76
2021/10/28 03:25:42;;;;;;;19.15;14.70;;;11.50;99.90;;;;;;5071177;28;20188;-75
2021/10/28 03:28:14;;;;;;;15.38;12.20;;;11.50;99.90;;;;;;5070584;28;20168;-76
2021/10/28 03:30:40;;;;;;;14.60;12.20;;;11.50;99.90;;;;;;5070122;28;20172;-76
2021/10/28 03:33:08;;;;;;;21.65;15.85;;;11.50;99.90;;;;;;5070274;28;20168;-76
2021/10/28 03:35:34;;;;;;;20.30;16.88;;;11.50;99.90;;;;;;5070764;28;20286;-76
2021/10/28 03:38:08;;;;;;;21.00;16.83;;;11.40;99.90;;;;;;5071479;28;20169;-76
2021/10/28 03:53:58;;;;;;;15.30;13.35;;;11.30;99.90;;;;;;5070092;28;20161;-76
2021/10/28 03:58:59;;;;;;;16.70;14.13;;;11.30;99.90;;;;;;5053040;28;20180;-76
2021/10/28 04:07:22;;;;;;;17.50;13.85;;;11.30;99.90;;;;;;5028496;28;20212;-76
2021/10/28 04:31:15;;;;;;;20.90;15.15;;;11.20;99.90;;;;;;5053691;28;20172;-76
2021/10/28 04:33:42;;;;;;;24.43;17.80;;;11.20;99.90;;;;;;5053304;28;20203;-77
2021/10/28 04:36:11;;;;;;;19.23;14.88;;;11.20;99.90;;;;;;5036152;28;20200;-76
2021/10/28 04:38:40;;;;;;;17.27;14.65;;;11.30;99.90;;;;;;5054668;28;20201;-76
2021/10/28 04:41:06;;;;;;;18.65;14.38;;;11.20;99.90;;;;;;5054672;28;20184;-76
2021/10/28 04:43:32;;;;;;;18.67;14.53;;;11.30;99.90;;;;;;5054283;28;20541;-76
2021/10/28 04:45:58;;;;;;;20.77;16.10;;;11.30;99.90;;;;;;5036397;28;20204;-76
2021/10/28 04:48:23;;;;;;;28.03;20.07;;;11.30;99.90;;;;;;5054248;28;20599;-76
2021/10/28 04:50:50;;;;;;;24.30;16.67;;;11.30;99.90;;;;;;5054232;28;20161;-77
2021/10/28 04:53:16;;;;;;;24.45;16.95;;;11.30;99.90;;;;;;5053997;28;20196;-76
2021/10/28 04:55:42;;;;;;;24.55;18.52;;;11.30;99.90;;;;;;5036099;28;20247;-76
2021/10/28 04:58:08;;;;;;;27.25;18.38;;;11.40;99.90;;;;;;5036019;28;20637;-75
2021/10/28 05:00:35;;;;;;;24.97;17.27;;;11.40;99.90;;;;;;5054161;28;20203;-76
2021/10/28 05:03:00;;;;;;;22.90;16.23;;;11.40;99.90;;;;;;5053984;28;20557;-76
2021/10/28 05:05:26;;;;;;;30.10;20.20;;;11.40;99.90;;;;;;5053729;28;20243;-76
2021/10/28 05:07:52;;;;;;;25.33;17.40;;;11.50;99.90;;;;;;5053850;28;21103;-77
2021/10/28 05:10:18;;;;;;;21.33;15.83;;;11.50;99.90;;;;;;5053949;28;20247;-76
2021/10/28 05:12:44;;;;;;;22.48;17.45;;;11.50;99.90;;;;;;5052548;28;20580;-76
2021/10/28 05:15:09;;;;;;;23.60;18.53;;;11.60;99.90;;;;;;5053458;28;20284;-77
2021/10/28 05:17:36;;;;;;;24.87;18.30;;;11.60;99.90;;;;;;5052707;28;20555;-77
2021/10/28 05:20:02;;;;;;;28.27;19.33;;;11.60;99.90;;;;;;5054502;28;20172;-76
2021/10/28 05:22:28;;;;;;;25.13;16.65;;;11.60;99.90;;;;;;5053759;28;20161;-77
2021/10/28 05:24:54;;;;;;;21.70;16.50;;;11.60;99.90;;;;;;5053417;28;20169;-76
2021/10/28 05:27:20;;;;;;;22.50;16.70;;;11.70;99.90;;;;;;5052385;28;20643;-76
2021/10/28 05:29:45;;;;;;;19.63;14.80;;;11.60;99.90;;;;;;5053465;28;20260;-76
2021/10/28 05:32:11;;;;;;;20.43;15.70;;;11.70;99.90;;;;;;5035851;28;20629;-77
2021/10/28 05:34:37;;;;;;;18.37;13.70;;;11.70;99.90;;;;;;5053096;28;20205;-77
2021/10/28 05:37:04;;;;;;;18.92;15.23;;;11.70;99.90;;;;;;5052875;28;20304;-76
2021/10/28 05:39:30;;;;;;;21.15;15.35;;;11.70;99.90;;;;;;5053220;28;20208;-76
2021/10/28 05:41:56;;;;;;;22.70;17.87;;;11.70;99.90;;;;;;5035629;28;20169;-77
2021/10/28 05:44:22;;;;;;;24.50;18.42;;;11.70;99.90;;;;;;5053083;28;20667;-77
2021/10/28 05:46:48;;;;;;;18.07;12.80;;;11.70;99.90;;;;;;5052861;28;20299;-77
2021/10/28 05:49:14;;;;;;;22.13;17.17;;;11.70;99.90;;;;;;5051520;28;20169;-77
2021/10/28 05:51:40;;;;;;;23.27;15.50;;;11.70;99.90;;;;;;5035345;28;20161;-77
2021/10/28 05:54:06;;;;;;;19.42;13.98;;;11.80;99.90;;;;;;5034994;28;20232;-76
2021/10/28 05:56:33;;;;;;;27.13;19.67;;;11.80;99.90;;;;;;5052877;28;20189;-77
2021/10/28 05:58:59;;;;;;;20.98;15.98;;;11.70;99.90;;;;;;5051533;28;20248;-76
2021/10/28 06:01:24;;;;;;;27.80;17.73;;;11.70;99.90;;;;;;5053225;28;20253;-76
2021/10/28 06:03:50;;;;;;;24.00;17.20;;;11.70;99.90;;;;;;5052399;28;20603;-76
2021/10/28 06:06:15;;;;;;;18.33;13.30;;;11.60;99.90;;;;;;5034600;28;20197;-76
2021/10/28 06:08:41;;;;;;;28.40;19.07;;;11.60;99.90;;;;;;5035106;28;20176;-77
2021/10/28 06:11:08;;;;;;;26.77;18.33;;;11.60;99.90;;;;;;5052503;28;20169;-77
2021/10/28 06:13:41;;;;;;;28.15;17.77;;;11.70;99.90;;;;;;5034794;28;20551;-76
2021/10/28 06:16:08;;;;;;;21.73;16.67;;;11.60;99.90;;;;;;5034398;28;20189;-75
2021/10/28 06:18:37;;;;;;;25.33;18.75;;;11.60;99.90;;;;;;5052920;28;20624;-76
2021/10/28 06:21:04;;;;;;;26.70;20.77;;;11.60;99.90;;;;;;5052171;28;20176;-76
2021/10/28 06:23:29;;;;;;;26.42;20.33;;;11.60;99.90;;;;;;5034529;28;20524;-77
2021/10/28 06:25:55;;;;;;;24.60;19.30;;;11.60;99.90;;;;;;5051867;28;20188;-76
2021/10/28 06:28:21;;;;;;;29.17;21.13;;;11.60;99.90;;;;;;5052172;28;20247;-77
2021/10/28 06:30:46;;;;;;;30.40;21.40;;;11.60;99.90;;;;;;5051087;28;20168;-77
2021/10/28 06:33:18;;;;;;;26.53;19.93;;;11.60;99.90;;;;;;5052297;28;20299;-77
2021/10/28 06:35:46;;;;;;;24.42;17.90;;;11.60;99.90;;;;;;5051669;28;20204;-76
2021/10/28 06:38:12;;;;;;;32.60;21.40;;;11.60;99.90;;;;;;5052285;28;20169;-76
2021/10/28 06:40:38;;;;;;;26.97;18.90;;;11.50;99.90;;;;;;5050730;28;20226;-76
2021/10/28 06:43:05;;;;;;;21.75;15.57;;;11.50;99.90;;;;;;5034244;28;20920;-76
2021/10/28 06:45:31;;;;;;;29.50;20.25;;;11.50;99.90;;;;;;5051390;28;20197;-76
2021/10/28 06:47:57;;;;;;;21.63;17.70;;;11.50;99.90;;;;;;5045763;23;20308;-80
2021/10/28 06:50:28;;;;;;;24.65;17.30;;;11.40;99.90;;;;;;5061841;28;20637;-78
2021/10/28 06:53:44;;;;;;;31.83;20.73;;;11.40;99.90;;;;;;5061228;28;20180;-79
2021/10/28 06:55:50;;;;;;;24.38;16.77;;;11.40;99.90;;;;;;5038853;28;20220;-81
2021/10/28 07:03:49;;;;;;;21.77;15.07;;;11.40;99.90;;;;;;5014777;28;20166;-79
2021/10/28 07:06:20;;;;;;;21.40;17.47;;;11.40;99.90;;;;;;5014043;28;20678;-78
2021/10/28 07:08:49;;;;;;;21.77;15.85;;;11.40;99.90;;;;;;5032295;28;20684;-79
2021/10/28 07:11:28;;;;;;;22.77;17.52;;;11.50;99.90;;;;;;5031634;28;20198;-78
2021/10/28 07:13:55;;;;;;;20.20;14.13;;;11.50;99.90;;;;;;5031983;28;20251;-78
2021/10/28 07:32:40;;;;;;;19.42;14.18;;;11.80;99.90;;;;;;5032211;28;20523;-78
2021/10/28 07:35:25;;;;;;;21.48;12.30;;;11.80;99.90;;;;;;5035026;28;20351;-78
2021/10/28 08:00:09;;;;;;;16.05;11.82;;;12.20;99.90;;;;;;5033941;28;20184;-79
2021/10/28 08:16:29;;;;;;;17.83;13.50;;;12.40;99.90;;;;;;5032026;28;20272;-79
2021/10/28 08:29:21;;;;;;;15.23;12.88;;;12.80;99.90;;;;;;5031298;28;20205;-78
2021/10/28 08:31:54;;;;;;;14.50;12.45;;;12.90;99.90;;;;;;5013549;28;20382;-78
2021/10/28 08:34:31;;;;;;;14.13;12.63;;;13.10;99.90;;;;;;5031034;28;20239;-78
2021/10/28 08:37:07;;;;;;;15.20;12.17;;;13.50;99.90;;;;;;5030997;28;20280;-78
2021/10/28 08:39:34;;;;;;;16.07;12.87;;;14.10;99.90;;;;;;4997000;28;20967;-78
2021/10/28 08:42:09;;;;;;;11.63;10.20;;;14.70;99.90;;;;;;5031249;28;20572;-78
2021/10/28 08:44:39;;;;;;;14.33;10.30;;;15.50;99.90;;;;;;5013008;28;20572;-80
2021/10/28 08:47:06;;;;;;;9.47;8.57;;;16.30;99.90;;;;;;5031196;28;20650;-79
2021/10/28 08:49:39;;;;;;;7.97;7.23;;;17.20;99.90;;;;;;5034643;28;20589;-79
2021/10/28 08:57:56;;;;;;;8.97;7.80;;;19.50;99.90;;;;;;5034387;28;21200;-78
2021/10/28 09:26:32;;;;;;;10.37;7.00;;;22.10;99.90;;;;;;5037321;28;20698;-79
2021/10/28 09:29:17;;;;;;;7.33;6.70;;;22.10;99.90;;;;;;5033788;28;20564;-79
2021/10/28 09:31:55;;;;;;;6.97;6.27;;;22.10;99.90;;;;;;5033603;28;20654;-80
2021/10/28 09:34:32;;;;;;;6.20;5.70;;;22.30;99.90;;;;;;4999685;28;20637;-79
2021/10/28 09:45:52;;;;;;;8.10;7.30;;;23.30;99.90;;;;;;5017050;28;21154;-79
2021/10/28 09:51:07;;;;;;;8.83;7.93;;;23.30;99.30;;;;;;5016693;28;20573;-80
2021/10/28 09:59:31;;;;;;;7.73;6.53;;;23.10;99.90;;;;;;5016348;28;20635;-80
2021/10/28 10:02:10;;;;;;;7.33;6.67;;;23.10;99.90;;;;;;5036952;28;20599;-78
2021/10/28 10:04:37;;;;;;;7.80;7.03;;;22.90;99.90;;;;;;4999502;28;20564;-79
2021/10/28 10:07:04;;;;;;;6.93;6.30;;;22.80;99.90;;;;;;5032710;28;20639;-79
2021/10/28 10:09:36;;;;;;;8.00;6.53;;;22.90;99.90;;;;;;5015549;28;20581;-79
2021/10/28 10:12:03;;;;;;;6.97;5.70;;;22.90;99.90;;;;;;5015190;28;20575;-78
2021/10/28 10:14:30;;;;;;;6.10;5.50;;;22.90;99.90;;;;;;5015161;28;20718;-78
2021/10/28 10:16:57;;;;;;;7.17;6.47;;;22.80;99.90;;;;;;5033467;28;21327;-79
2021/10/28 10:19:35;;;;;;;8.10;7.00;;;22.70;99.90;;;;;;5036202;28;20957;-78
2021/10/28 10:22:34;;;;;;;6.90;6.20;;;22.50;98.80;;;;;;5036151;28;20572;-78
2021/10/28 10:25:01;;;;;;;9.93;8.47;;;22.40;99.90;;;;;;5016057;28;21147;-78
2021/10/28 13:55:20;;;;;;;8.83;7.83;;;17.40;99.90;;;;;;5053334;28;20619;-78
2021/10/28 14:31:04;;;;;;;11.00;8.37;;;17.40;99.90;;;;;;5053339;28;21099;-78
2021/10/28 14:38:59;;;;;;;11.20;9.53;;;17.30;99.90;;;;;;5053127;28;20566;-79
2021/10/28 15:01:13;;;;;;;9.57;7.93;;;17.10;99.90;;;;;;5055076;28;20568;-80
2021/10/28 15:28:15;;;;;;;9.53;8.50;;;16.70;99.90;;;;;;5051563;28;20595;-80
2021/10/28 15:33:48;;;;;;;11.20;10.00;;;16.70;99.90;;;;;;5034379;28;20975;-79
2021/10/28 15:36:29;;;;;;;12.03;10.87;;;16.60;99.90;;;;;;5055589;28;20583;-79
2021/10/28 15:41:41;;;;;;;8.57;7.50;;;16.50;99.90;;;;;;5034472;28;20907;-79
2021/10/28 16:21:55;;;;;;;11.47;10.27;;;15.60;99.90;;;;;;5056079;28;20564;-80
2021/10/28 16:24:30;;;;;;;10.93;9.73;;;15.50;99.90;;;;;;5056675;28;20567;-79
2021/10/28 16:26:56;;;;;;;12.10;10.90;;;15.40;99.90;;;;;;5038302;28;20621;-79
2021/10/28 16:29:24;;;;;;;14.10;11.60;;;15.40;99.90;;;;;;5056535;28;20559;-79
2021/10/28 16:31:50;;;;;;;13.40;11.40;;;15.30;99.90;;;;;;5056252;28;20663;-79
2021/10/28 16:34:16;;;;;;;15.13;12.53;;;15.20;99.90;;;;;;5055359;28;20615;-80
2021/10/28 16:36:44;;;;;;;14.70;12.70;;;15.10;99.90;;;;;;5055159;28;20615;-80
2021/10/28 16:39:12;;;;;;;12.83;11.07;;;15.10;99.90;;;;;;5048364;28;20590;-77
2021/10/28 16:41:39;;;;;;;12.50;11.20;;;15.10;99.90;;;;;;5047115;28;20587;-80
2021/10/28 16:44:06;;;;;;;12.60;11.10;;;15.00;99.90;;;;;;5019881;28;21146;-78
2021/10/28 16:46:33;;;;;;;12.23;11.10;;;14.90;99.90;;;;;;5053650;28;20697;-79
2021/10/28 16:48:59;;;;;;;11.63;10.43;;;14.90;99.90;;;;;;5013003;28;20567;-79
2021/10/28 16:51:25;;;;;;;13.93;11.47;;;14.80;99.90;;;;;;5040848;28;20589;-79
2021/10/28 16:53:52;;;;;;;14.27;12.77;;;14.80;99.90;;;;;;5054257;28;20683;-78
2021/10/28 16:56:18;;;;;;;14.00;12.13;;;14.60;99.90;;;;;;5011727;28;20607;-78
2021/10/28 16:58:44;;;;;;;16.00;12.53;;;14.60;99.90;;;;;;5036956;28;20176;-79
2021/10/28 17:01:11;;;;;;;14.03;12.20;;;14.60;99.90;;;;;;5054279;28;20563;-78
2021/10/28 17:03:37;;;;;;;14.70;12.97;;;14.50;99.90;;;;;;5053900;28;20662;-78
2021/10/28 17:06:04;;;;;;;15.27;13.50;;;14.40;99.90;;;;;;5053127;28;20603;-78
2021/10/28 17:08:29;;;;;;;14.93;13.33;;;14.30;99.90;;;;;;5046342;28;20603;-78
2021/10/28 17:10:56;;;;;;;16.00;13.37;;;14.30;99.90;;;;;;5048736;28;20592;-80
2021/10/28 17:13:23;;;;;;;13.60;11.83;;;14.20;99.90;;;;;;5044590;28;20593;-80
2021/10/28 17:15:49;;;;;;;15.17;12.30;;;14.20;99.90;;;;;;5035521;28;20667;-78
2021/10/28 17:18:15;;;;;;;15.20;13.60;;;14.10;99.90;;;;;;5053892;28;20651;-78
2021/10/28 17:20:41;;;;;;;19.43;15.80;;;14.10;99.90;;;;;;5045961;28;20258;-79
2021/10/28 17:23:14;;;;;;;23.40;18.57;;;14.10;99.90;;;;;;5053657;28;20583;-79
2021/10/28 17:25:44;;;;;;;21.73;16.80;;;14.00;99.90;;;;;;5026673;28;20180;-78
2021/10/28 17:28:10;;;;;;;19.00;17.03;;;13.90;99.90;;;;;;5033427;28;20976;-79
2021/10/28 17:30:36;;;;;;;19.80;17.27;;;13.80;99.90;;;;;;5052705;28;20580;-79
2021/10/28 17:33:03;;;;;;;20.60;17.77;;;13.70;99.90;;;;;;5048544;28;21112;-78
2021/10/28 17:35:29;;;;;;;18.17;15.70;;;13.70;99.90;;;;;;5050605;28;20794;-79
2021/10/28 17:37:55;;;;;;;16.00;14.30;;;13.60;99.90;;;;;;5053453;28;20622;-79
2021/10/28 17:40:21;;;;;;;16.83;15.00;;;13.50;99.90;;;;;;5053549;28;21016;-79
2021/10/28 17:42:48;;;;;;;16.80;14.50;;;13.50;99.90;;;;;;5036437;28;20181;-78
2021/10/28 17:45:14;;;;;;;19.17;16.83;;;13.50;99.90;;;;;;5053020;28;20627;-79
2021/10/28 17:47:42;;;;;;;17.73;15.83;;;13.40;99.90;;;;;;5042838;28;21014;-79
2021/10/28 17:50:08;;;;;;;19.50;16.50;;;13.40;99.90;;;;;;5039629;28;20634;-78
2021/10/28 17:52:34;;;;;;;26.27;21.30;;;13.30;99.90;;;;;;5051173;28;20592;-79
2021/10/28 17:55:02;;;;;;;17.90;16.00;;;13.30;99.90;;;;;;5047312;28;20631;-79
2021/10/28 17:57:29;;;;;;;26.50;19.58;;;13.20;99.90;;;;;;5052012;28;20254;-78
2021/10/28 17:59:54;;;;;;;20.58;17.30;;;13.20;99.90;;;;;;5052607;28;20168;-78
2021/10/28 18:02:20;;;;;;;16.77;15.07;;;13.20;99.90;;;;;;5045331;28;20520;-78
2021/10/28 18:04:46;;;;;;;18.40;16.17;;;13.10;99.90;;;;;;5055932;28;20323;-78
2021/10/28 18:07:11;;;;;;;22.00;17.23;;;13.10;99.90;;;;;;5048097;28;20189;-78
2021/10/28 18:09:38;;;;;;;20.37;17.87;;;13.00;99.90;;;;;;5027583;28;20519;-78
2021/10/28 18:12:04;;;;;;;18.27;16.33;;;12.90;99.90;;;;;;5034713;28;20185;-78
2021/10/28 18:14:30;;;;;;;24.37;17.67;;;12.90;99.90;;;;;;5050956;28;20204;-78
2021/10/28 18:16:57;;;;;;;21.53;17.97;;;12.80;99.90;;;;;;5011071;28;20603;-78
2021/10/28 18:19:24;;;;;;;22.77;18.27;;;12.80;99.90;;;;;;5035252;28;20590;-78
2021/10/28 18:21:55;;;;;;;24.30;20.90;;;12.70;99.90;;;;;;5015116;28;20169;-79
2021/10/28 18:24:25;;;;;;;18.02;15.43;;;12.70;99.90;;;;;;5032761;28;20651;-78
2021/10/28 18:26:52;;;;;;;22.00;17.85;;;12.70;99.90;;;;;;4982617;28;20194;-78
2021/10/28 18:29:19;;;;;;;20.58;17.52;;;12.60;99.90;;;;;;5033337;28;20177;-79
2021/10/28 18:31:45;;;;;;;23.30;18.38;;;12.60;99.90;;;;;;5033114;28;20247;-78
2021/10/28 18:34:12;;;;;;;23.20;19.02;;;12.50;99.90;;;;;;5032938;28;20193;-78
2021/10/28 18:36:38;;;;;;;22.45;17.60;;;12.50;99.90;;;;;;5032855;28;20194;-78
2021/10/28 18:39:05;;;;;;;21.60;16.52;;;12.50;99.90;;;;;;5033029;28;20162;-78
2021/10/28 18:41:32;;;;;;;18.80;15.32;;;12.40;99.90;;;;;;5019247;28;20674;-78
2021/10/28 18:43:58;;;;;;;19.70;16.05;;;12.40;99.90;;;;;;5015584;28;20166;-77
2021/10/28 18:46:24;;;;;;;22.88;17.70;;;12.40;99.90;;;;;;4998258;28;20288;-79
2021/10/28 18:48:57;;;;;;;20.17;16.85;;;12.40;99.90;;;;;;5033521;28;20189;-81
2021/10/28 18:51:23;;;;;;;21.90;18.52;;;12.30;99.90;;;;;;5033284;28;20554;-81
2021/10/28 18:53:49;;;;;;;22.50;18.42;;;12.30;99.90;;;;;;5015271;28;20173;-80
2021/10/28 18:56:17;;;;;;;22.00;18.60;;;12.20;99.90;;;;;;5032972;28;20569;-80
2021/10/28 18:58:43;;;;;;;21.13;17.23;;;12.20;99.90;;;;;;5033235;28;20559;-80
2021/10/28 19:01:11;;;;;;;18.30;15.98;;;12.20;99.90;;;;;;5033353;28;20248;-80
2021/10/28 19:03:39;;;;;;;23.05;18.20;;;12.20;99.90;;;;;;4998870;28;20169;-80
2021/10/28 19:06:06;;;;;;;22.33;17.27;;;12.10;99.90;;;;;;5031888;28;20165;-80
2021/10/28 19:08:33;;;;;;;23.83;19.95;;;12.10;99.90;;;;;;5014506;28;20181;-80
2021/10/28 19:11:00;;;;;;;21.75;18.60;;;12.10;99.90;;;;;;5032386;28;20173;-80
2021/10/28 19:13:25;;;;;;;22.73;19.08;;;12.10;99.90;;;;;;5014445;28;20381;-80
2021/10/28 19:15:52;;;;;;;20.40;17.90;;;12.00;99.90;;;;;;5031896;28;20546;-80
2021/10/28 19:18:18;;;;;;;22.20;18.50;;;12.00;99.90;;;;;;5000980;28;20192;-79
2021/10/28 19:20:44;;;;;;;23.57;17.60;;;12.00;99.90;;;;;;5032529;28;20170;-80
2021/10/28 19:23:10;;;;;;;19.63;17.60;;;12.00;99.90;;;;;;5032173;28;20652;-80
2021/10/28 19:25:36;;;;;;;18.77;16.63;;;11.90;99.90;;;;;;5031618;28;20572;-80
2021/10/28 19:28:02;;;;;;;19.20;15.98;;;11.90;99.90;;;;;;5032087;28;20609;-80
2021/10/28 19:30:36;;;;;;;25.30;20.20;;;11.90;99.90;;;;;;5032012;28;20681;-79
2021/10/28 19:33:11;;;;;;;25.48;19.95;;;11.80;99.90;;;;;;5031823;28;21020;-79
2021/10/28 19:35:39;;;;;;;26.73;21.73;;;11.80;99.90;;;;;;5030748;28;20239;-80
2021/10/28 19:38:30;;;;;;;24.25;18.77;;;11.70;99.90;;;;;;5031943;28;20189;-80
2021/10/28 19:41:13;;;;;;;23.73;18.40;;;11.80;99.90;;;;;;5031548;28;20169;-80
2021/10/28 19:46:24;;;;;;;22.52;17.55;;;11.70;99.90;;;;;;5031309;28;20202;-79
2021/10/28 19:48:50;;;;;;;24.10;18.50;;;11.60;99.90;;;;;;5031886;28;20544;-80
2021/10/28 19:51:17;;;;;;;26.83;19.60;;;11.60;99.90;;;;;;5013916;28;20170;-80
2021/10/28 19:53:46;;;;;;;22.70;18.33;;;11.60;99.90;;;;;;5031530;28;20900;-79
2021/10/28 19:56:18;;;;;;;25.65;19.35;;;11.60;99.90;;;;;;5018190;28;20282;-81
2021/10/28 19:58:49;;;;;;;22.15;18.00;;;11.60;99.90;;;;;;5031773;28;20621;-80
2021/10/28 20:06:56;;;;;;;22.17;17.73;;;11.50;99.90;;;;;;4993632;28;20206;-80
2021/10/28 20:15:21;;;;;;;22.98;19.13;;;11.40;99.90;;;;;;5034896;28;20225;-78
2021/10/28 20:20:35;;;;;;;21.42;17.58;;;11.40;99.90;;;;;;5014047;28;20170;-78
2021/10/28 20:23:01;;;;;;;22.80;17.80;;;11.40;99.90;;;;;;5031251;28;20253;-79
2021/10/28 20:25:29;;;;;;;24.75;19.70;;;11.40;99.90;;;;;;5031010;28;20172;-79
2021/10/28 20:27:57;;;;;;;22.17;17.05;;;11.40;99.90;;;;;;5031132;28;20190;-79
2021/10/28 20:30:30;;;;;;;21.23;18.10;;;11.30;99.90;;;;;;5031303;28;20174;-79
2021/10/28 20:32:57;;;;;;;21.77;16.92;;;11.30;99.90;;;;;;5035055;28;20243;-79
2021/10/28 20:37:51;;;;;;;27.45;22.00;;;11.30;99.90;;;;;;5030709;28;20216;-79
2021/10/28 20:40:16;;;;;;;20.92;17.73;;;11.30;99.90;;;;;;5013636;28;20177;-79
2021/10/28 20:42:47;;;;;;;22.27;18.37;;;11.20;99.90;;;;;;5013255;28;20611;-80
2021/10/28 20:45:18;;;;;;;22.27;17.00;;;11.20;99.90;;;;;;5030965;28;20285;-81
2021/10/28 20:47:44;;;;;;;20.33;17.30;;;11.20;99.90;;;;;;5016028;28;20201;-78
2021/10/28 20:50:13;;;;;;;22.25;17.70;;;11.20;99.90;;;;;;5034842;28;20177;-78
2021/10/28 20:52:40;;;;;;;24.35;18.70;;;11.20;99.90;;;;;;5017165;28;20173;-79
2021/10/28 20:55:07;;;;;;;25.55;19.20;;;11.20;99.90;;;;;;5034404;28;20649;-79
2021/10/28 20:57:35;;;;;;;21.67;17.67;;;11.10;99.90;;;;;;5016665;28;20205;-79
2021/10/28 21:00:07;;;;;;;24.80;20.40;;;11.10;99.90;;;;;;5034979;28;20176;-79
2021/10/28 21:02:34;;;;;;;24.50;19.65;;;11.10;99.90;;;;;;5034648;28;20488;-79
2021/10/28 21:05:00;;;;;;;22.42;15.70;;;11.10;99.90;;;;;;5034798;28;20638;-79
2021/10/28 21:07:27;;;;;;;21.95;18.83;;;11.10;99.90;;;;;;5034898;28;20536;-79
2021/10/28 21:09:53;;;;;;;23.80;17.63;;;11.10;99.90;;;;;;5038554;28;20196;-79
2021/10/28 21:12:19;;;;;;;20.35;16.38;;;11.10;99.90;;;;;;5035310;28;20533;-79
2021/10/28 21:14:45;;;;;;;23.30;17.75;;;11.00;99.90;;;;;;5050459;28;20214;-79
2021/10/28 21:17:11;;;;;;;21.83;18.07;;;11.00;99.90;;;;;;5048797;28;20242;-80
2021/10/28 21:19:37;;;;;;;24.03;18.60;;;11.00;99.90;;;;;;5052892;28;20583;-81
2021/10/28 21:22:03;;;;;;;26.87;19.70;;;11.00;99.90;;;;;;5045868;28;20184;-79
2021/10/28 21:24:29;;;;;;;20.83;16.60;;;11.00;99.90;;;;;;5053034;28;20640;-79
2021/10/28 21:26:55;;;;;;;23.75;19.45;;;11.00;99.90;;;;;;5053015;28;20650;-79